sensor_id;sensor_type;location;lat;lon;timestamp;pressure;altitude;pressure_sealevel;temperature;humidity
78839;BME280;68405;47.190;27.558;2023-09-19T00:00:43;100128.23;;;16.17;60.47
78839;BME280;68405;47.190;27.558;2023-09-19T00:03:32;100126.98;;;16.14;60.62
78839;BME280;68405;47.190;27.558;2023-09-19T00:06:00;100120.64;;;16.11;61.78
78839;BME280;68405;47.190;27.558;2023-09-19T00:08:29;100124.69;;;16.07;59.56
78839;BME280;68405;47.190;27.558;2023-09-19T00:10:58;100124.41;;;16.03;60.30
78839;BME280;68405;47.190;27.558;2023-09-19T00:13:33;100126.42;;;16.05;61.85
78839;BME280;68405;47.190;27.558;2023-09-19T00:16:10;100128.86;;;16.05;62.01
78839;BME280;68405;47.190;27.558;2023-09-19T00:18:39;100127.51;;;16.01;61.02
78839;BME280;68405;47.190;27.558;2023-09-19T00:21:08;100122.60;;;15.97;62.07
78839;BME280;68405;47.190;27.558;2023-09-19T00:23:38;100122.58;;;15.94;61.34
78839;BME280;68405;47.190;27.558;2023-09-19T00:26:11;100117.98;;;15.92;61.12
78839;BME280;68405;47.190;27.558;2023-09-19T00:28:41;100119.64;;;15.90;62.10
78839;BME280;68405;47.190;27.558;2023-09-19T00:31:09;100113.82;;;15.88;62.22
78839;BME280;68405;47.190;27.558;2023-09-19T00:33:38;100118.40;;;15.87;63.58
78839;BME280;68405;47.190;27.558;2023-09-19T00:36:07;100113.42;;;15.89;64.34
78839;BME280;68405;47.190;27.558;2023-09-19T00:38:36;100114.59;;;15.90;63.80
78839;BME280;68405;47.190;27.558;2023-09-19T00:41:05;100113.34;;;15.90;63.12
78839;BME280;68405;47.190;27.558;2023-09-19T00:43:35;100110.96;;;15.92;64.46
78839;BME280;68405;47.190;27.558;2023-09-19T00:46:03;100108.92;;;15.91;63.83
78839;BME280;68405;47.190;27.558;2023-09-19T00:48:39;100108.48;;;15.93;64.29
78839;BME280;68405;47.190;27.558;2023-09-19T00:51:09;100107.14;;;15.95;63.97
78839;BME280;68405;47.190;27.558;2023-09-19T00:53:39;100106.23;;;15.95;63.91
78839;BME280;68405;47.190;27.558;2023-09-19T00:56:08;100103.17;;;15.94;62.58
78839;BME280;68405;47.190;27.558;2023-09-19T00:58:37;100099.83;;;15.94;63.86
78839;BME280;68405;47.190;27.558;2023-09-19T01:01:08;100102.00;;;15.93;62.45
78839;BME280;68405;47.190;27.558;2023-09-19T01:03:39;100102.29;;;15.94;64.12
78839;BME280;68405;47.190;27.558;2023-09-19T01:06:09;100099.48;;;15.97;63.70
78839;BME280;68405;47.190;27.558;2023-09-19T01:08:37;100095.20;;;15.99;63.24
78839;BME280;68405;47.190;27.558;2023-09-19T01:11:13;100093.62;;;15.99;64.59
78839;BME280;68405;47.190;27.558;2023-09-19T01:13:50;100090.70;;;16.01;64.12
78839;BME280;68405;47.190;27.558;2023-09-19T01:16:32;100079.25;;;15.99;64.96
78839;BME280;68405;47.190;27.558;2023-09-19T01:19:13;100075.07;;;16.02;63.88
78839;BME280;68405;47.190;27.558;2023-09-19T01:21:57;100069.02;;;16.03;64.84
78839;BME280;68405;47.190;27.558;2023-09-19T01:25:28;100060.74;;;16.01;64.17
78839;BME280;68405;47.190;27.558;2023-09-19T01:28:23;100057.16;;;15.99;64.37
78839;BME280;68405;47.190;27.558;2023-09-19T01:30:57;100053.70;;;16.02;63.83
78839;BME280;68405;47.190;27.558;2023-09-19T01:33:27;100057.64;;;16.03;64.49
78839;BME280;68405;47.190;27.558;2023-09-19T01:36:02;100057.02;;;16.02;64.80
78839;BME280;68405;47.190;27.558;2023-09-19T01:38:31;100059.55;;;16.01;64.25
78839;BME280;68405;47.190;27.558;2023-09-19T01:41:06;100063.59;;;15.97;63.82
78839;BME280;68405;47.190;27.558;2023-09-19T01:43:43;100066.73;;;15.97;64.16
78839;BME280;68405;47.190;27.558;2023-09-19T01:46:18;100068.42;;;15.95;64.36
78839;BME280;68405;47.190;27.558;2023-09-19T01:49:01;100062.35;;;15.96;64.51
78839;BME280;68405;47.190;27.558;2023-09-19T01:51:42;100058.77;;;15.95;64.67
78839;BME280;68405;47.190;27.558;2023-09-19T01:54:18;100057.65;;;15.93;63.78
78839;BME280;68405;47.190;27.558;2023-09-19T01:56:53;100052.17;;;15.91;64.86
78839;BME280;68405;47.190;27.558;2023-09-19T01:59:35;100046.69;;;15.89;65.86
78839;BME280;68405;47.190;27.558;2023-09-19T02:02:09;100039.41;;;15.87;64.46
78839;BME280;68405;47.190;27.558;2023-09-19T02:04:38;100040.01;;;15.89;64.31
78839;BME280;68405;47.190;27.558;2023-09-19T02:07:07;100035.24;;;15.93;64.89
78839;BME280;68405;47.190;27.558;2023-09-19T02:09:36;100035.86;;;15.94;65.11
78839;BME280;68405;47.190;27.558;2023-09-19T03:05:33;99992.17;;;15.73;65.46
78839;BME280;68405;47.190;27.558;2023-09-19T03:08:03;99992.89;;;15.69;64.67
78839;BME280;68405;47.190;27.558;2023-09-19T03:10:32;99990.21;;;15.63;64.81
78839;BME280;68405;47.190;27.558;2023-09-19T03:13:02;99993.41;;;15.56;65.22
78839;BME280;68405;47.190;27.558;2023-09-19T03:15:31;99989.73;;;15.49;64.49
78839;BME280;68405;47.190;27.558;2023-09-19T03:17:59;99991.42;;;15.41;64.92
78839;BME280;68405;47.190;27.558;2023-09-19T03:20:28;99988.79;;;15.31;65.25
78839;BME280;68405;47.190;27.558;2023-09-19T03:22:57;99993.68;;;15.20;65.22
78839;BME280;68405;47.190;27.558;2023-09-19T03:25:26;99993.80;;;15.11;66.51
78839;BME280;68405;47.190;27.558;2023-09-19T03:27:58;99994.25;;;15.03;65.96
78839;BME280;68405;47.190;27.558;2023-09-19T03:30:27;99988.91;;;14.94;66.63
78839;BME280;68405;47.190;27.558;2023-09-19T03:32:56;99986.59;;;14.88;68.23
78839;BME280;68405;47.190;27.558;2023-09-19T03:35:25;99988.23;;;14.83;67.36
78839;BME280;68405;47.190;27.558;2023-09-19T03:37:54;99985.77;;;14.80;68.12
78839;BME280;68405;47.190;27.558;2023-09-19T03:40:23;99985.77;;;14.77;66.99
78839;BME280;68405;47.190;27.558;2023-09-19T03:42:53;99989.96;;;14.73;67.20
78839;BME280;68405;47.190;27.558;2023-09-19T03:45:22;99988.82;;;14.72;66.32
78839;BME280;68405;47.190;27.558;2023-09-19T03:47:51;99987.68;;;14.74;68.66
78839;BME280;68405;47.190;27.558;2023-09-19T03:50:20;99990.06;;;14.75;67.86
78839;BME280;68405;47.190;27.558;2023-09-19T03:52:49;99991.45;;;14.75;67.23
78839;BME280;68405;47.190;27.558;2023-09-19T03:55:17;99988.54;;;14.77;67.65
78839;BME280;68405;47.190;27.558;2023-09-19T03:57:49;99985.64;;;14.79;68.54
78839;BME280;68405;47.190;27.558;2023-09-19T04:00:18;99979.95;;;14.81;68.46
78839;BME280;68405;47.190;27.558;2023-09-19T04:02:51;99985.30;;;14.82;68.20
78839;BME280;68405;47.190;27.558;2023-09-19T04:05:20;99985.16;;;14.85;67.08
78839;BME280;68405;47.190;27.558;2023-09-19T04:07:49;99988.33;;;14.89;67.53
78839;BME280;68405;47.190;27.558;2023-09-19T04:10:18;99986.45;;;14.95;68.62
78839;BME280;68405;47.190;27.558;2023-09-19T04:12:54;99982.84;;;15.04;68.05
78839;BME280;68405;47.190;27.558;2023-09-19T04:15:24;99982.77;;;15.15;68.59
78839;BME280;68405;47.190;27.558;2023-09-19T04:17:53;99974.24;;;15.28;67.66
78839;BME280;68405;47.190;27.558;2023-09-19T04:20:22;99970.41;;;15.41;67.30
78839;BME280;68405;47.190;27.558;2023-09-19T04:22:51;99973.16;;;15.52;67.14
78839;BME280;68405;47.190;27.558;2023-09-19T04:25:20;99977.52;;;15.62;67.46
78839;BME280;68405;47.190;27.558;2023-09-19T04:27:49;99978.61;;;15.74;66.93
78839;BME280;68405;47.190;27.558;2023-09-19T04:30:18;99980.59;;;15.86;66.20
78839;BME280;68405;47.190;27.558;2023-09-19T04:32:49;99984.98;;;16.12;66.05
78839;BME280;68405;47.190;27.558;2023-09-19T04:35:19;99984.44;;;16.50;65.30
78839;BME280;68405;47.190;27.558;2023-09-19T04:37:48;99980.92;;;16.80;64.45
78839;BME280;68405;47.190;27.558;2023-09-19T04:40:19;99979.49;;;16.90;64.35
78839;BME280;68405;47.190;27.558;2023-09-19T04:42:55;99979.35;;;17.59;63.16
78839;BME280;68405;47.190;27.558;2023-09-19T04:45:25;99977.56;;;18.27;60.99
78839;BME280;68405;47.190;27.558;2023-09-19T04:47:55;99978.04;;;18.81;60.13
78839;BME280;68405;47.190;27.558;2023-09-19T04:50:24;99978.32;;;19.19;59.46
78839;BME280;68405;47.190;27.558;2023-09-19T04:52:54;99978.02;;;19.84;57.88
78839;BME280;68405;47.190;27.558;2023-09-19T04:55:23;99979.55;;;20.36;55.18
78839;BME280;68405;47.190;27.558;2023-09-19T04:57:52;99973.08;;;21.45;54.83
78839;BME280;68405;47.190;27.558;2023-09-19T05:00:22;99970.85;;;22.68;51.27
78839;BME280;68405;47.190;27.558;2023-09-19T05:02:54;99961.21;;;24.14;49.40
78839;BME280;68405;47.190;27.558;2023-09-19T05:05:24;99956.41;;;25.64;45.46
78839;BME280;68405;47.190;27.558;2023-09-19T05:07:54;99955.35;;;27.15;43.17
78839;BME280;68405;47.190;27.558;2023-09-19T05:10:23;99946.20;;;28.36;38.69
78839;BME280;68405;47.190;27.558;2023-09-19T05:12:54;99941.79;;;28.14;38.49
78839;BME280;68405;47.190;27.558;2023-09-19T05:15:23;99936.88;;;27.30;41.36
78839;BME280;68405;47.190;27.558;2023-09-19T05:17:53;99932.05;;;27.75;36.47
78839;BME280;68405;47.190;27.558;2023-09-19T05:20:23;99920.25;;;29.31;36.63
78839;BME280;68405;47.190;27.558;2023-09-19T05:23:00;99918.06;;;30.83;32.36
78839;BME280;68405;47.190;27.558;2023-09-19T05:25:35;99916.84;;;32.29;30.47
78839;BME280;68405;47.190;27.558;2023-09-19T05:28:07;99923.02;;;33.11;27.86
78839;BME280;68405;47.190;27.558;2023-09-19T05:30:36;99918.51;;;33.78;26.98
78839;BME280;68405;47.190;27.558;2023-09-19T05:33:06;99919.58;;;34.70;26.62
78839;BME280;68405;47.190;27.558;2023-09-19T05:35:36;99914.54;;;34.15;25.76
78839;BME280;68405;47.190;27.558;2023-09-19T05:38:07;99918.67;;;32.54;27.63
78839;BME280;68405;47.190;27.558;2023-09-19T05:40:38;99915.60;;;31.26;28.94
78839;BME280;68405;47.190;27.558;2023-09-19T05:43:10;99911.80;;;30.15;29.47
78839;BME280;68405;47.190;27.558;2023-09-19T05:45:39;99912.26;;;29.88;30.15
78839;BME280;68405;47.190;27.558;2023-09-19T05:48:10;99906.80;;;31.16;28.41
78839;BME280;68405;47.190;27.558;2023-09-19T05:50:39;99911.11;;;33.23;27.95
78839;BME280;68405;47.190;27.558;2023-09-19T05:53:09;99911.13;;;34.51;25.07
78839;BME280;68405;47.190;27.558;2023-09-19T05:55:40;99909.77;;;35.18;23.28
78839;BME280;68405;47.190;27.558;2023-09-19T05:58:09;99908.13;;;35.79;22.18
78839;BME280;68405;47.190;27.558;2023-09-19T06:00:42;99911.00;;;36.62;21.79
78839;BME280;68405;47.190;27.558;2023-09-19T06:03:12;99911.60;;;35.67;21.67
78839;BME280;68405;47.190;27.558;2023-09-19T06:05:42;99905.58;;;34.97;21.59
78839;BME280;68405;47.190;27.558;2023-09-19T06:08:11;99904.06;;;34.62;23.33
78839;BME280;68405;47.190;27.558;2023-09-19T06:10:40;99902.68;;;35.63;21.29
78839;BME280;68405;47.190;27.558;2023-09-19T06:13:09;99907.26;;;35.70;21.91
78839;BME280;68405;47.190;27.558;2023-09-19T06:15:38;99910.06;;;35.43;21.63
78839;BME280;68405;47.190;27.558;2023-09-19T06:18:12;99910.63;;;36.21;20.56
78839;BME280;68405;47.190;27.558;2023-09-19T06:20:45;99911.79;;;36.96;20.10
78839;BME280;68405;47.190;27.558;2023-09-19T06:23:14;99906.98;;;36.78;19.76
78839;BME280;68405;47.190;27.558;2023-09-19T06:25:43;99906.88;;;38.48;18.73
78839;BME280;68405;47.190;27.558;2023-09-19T06:28:12;99913.45;;;38.72;17.74
78839;BME280;68405;47.190;27.558;2023-09-19T06:30:42;99919.84;;;39.30;17.19
78839;BME280;68405;47.190;27.558;2023-09-19T06:33:12;99914.05;;;38.85;16.31
78839;BME280;68405;47.190;27.558;2023-09-19T06:35:41;99911.38;;;39.81;15.96
78839;BME280;68405;47.190;27.558;2023-09-19T06:38:15;99912.98;;;39.91;15.47
78839;BME280;68405;47.190;27.558;2023-09-19T06:40:45;99917.20;;;39.77;15.09
78839;BME280;68405;47.190;27.558;2023-09-19T06:43:14;99916.23;;;39.96;14.87
78839;BME280;68405;47.190;27.558;2023-09-19T06:45:43;99921.61;;;39.71;14.72
78839;BME280;68405;47.190;27.558;2023-09-19T06:48:12;99922.30;;;38.80;15.81
78839;BME280;68405;47.190;27.558;2023-09-19T06:50:40;99920.09;;;39.85;15.39
78839;BME280;68405;47.190;27.558;2023-09-19T06:53:12;99912.17;;;40.28;15.09
78839;BME280;68405;47.190;27.558;2023-09-19T06:55:40;99916.17;;;41.36;13.80
78839;BME280;68405;47.190;27.558;2023-09-19T06:58:12;99917.91;;;41.40;14.08
78839;BME280;68405;47.190;27.558;2023-09-19T07:00:41;99919.52;;;42.21;12.81
78839;BME280;68405;47.190;27.558;2023-09-19T07:03:09;99917.50;;;43.36;11.94
78839;BME280;68405;47.190;27.558;2023-09-19T07:05:40;99920.64;;;44.31;11.86
78839;BME280;68405;47.190;27.558;2023-09-19T07:08:11;99924.73;;;44.77;11.02
78839;BME280;68405;47.190;27.558;2023-09-19T07:10:40;99922.01;;;44.66;10.74
78839;BME280;68405;47.190;27.558;2023-09-19T07:13:10;99918.45;;;45.32;10.50
78839;BME280;68405;47.190;27.558;2023-09-19T07:15:39;99911.96;;;43.99;10.40
78839;BME280;68405;47.190;27.558;2023-09-19T07:18:15;99912.39;;;43.23;10.26
78839;BME280;68405;47.190;27.558;2023-09-19T07:20:45;99915.56;;;43.96;9.66
78839;BME280;68405;47.190;27.558;2023-09-19T07:23:16;99921.44;;;43.20;9.80
78839;BME280;68405;47.190;27.558;2023-09-19T07:25:46;99921.84;;;42.89;10.42
78839;BME280;68405;47.190;27.558;2023-09-19T07:28:17;99921.42;;;42.90;10.60
78839;BME280;68405;47.190;27.558;2023-09-19T07:30:47;99920.30;;;42.75;10.92
78839;BME280;68405;47.190;27.558;2023-09-19T07:33:15;99916.89;;;42.91;10.94
78839;BME280;68405;47.190;27.558;2023-09-19T07:35:47;99914.45;;;42.33;11.61
78839;BME280;68405;47.190;27.558;2023-09-19T07:38:16;99914.07;;;41.97;11.48
78839;BME280;68405;47.190;27.558;2023-09-19T07:40:45;99909.64;;;43.06;10.97
78839;BME280;68405;47.190;27.558;2023-09-19T07:43:14;99918.75;;;42.42;11.23
78839;BME280;68405;47.190;27.558;2023-09-19T07:45:43;99925.20;;;42.06;11.14
78839;BME280;68405;47.190;27.558;2023-09-19T07:48:12;99913.10;;;41.57;11.16
78839;BME280;68405;47.190;27.558;2023-09-19T07:50:43;99910.45;;;40.35;11.46
78839;BME280;68405;47.190;27.558;2023-09-19T07:53:12;99918.70;;;40.08;11.93
78839;BME280;68405;47.190;27.558;2023-09-19T07:55:42;99924.80;;;41.41;11.35
78839;BME280;68405;47.190;27.558;2023-09-19T07:58:10;99926.02;;;41.41;11.25
78839;BME280;68405;47.190;27.558;2023-09-19T08:00:41;99910.20;;;41.35;11.47
78839;BME280;68405;47.190;27.558;2023-09-19T08:03:10;99915.99;;;40.52;11.99
78839;BME280;68405;47.190;27.558;2023-09-19T08:05:44;99914.84;;;40.35;12.21
78839;BME280;68405;47.190;27.558;2023-09-19T08:08:13;99912.84;;;40.83;12.00
78839;BME280;68405;47.190;27.558;2023-09-19T08:10:42;99909.34;;;41.77;11.58
78839;BME280;68405;47.190;27.558;2023-09-19T08:13:13;99913.08;;;41.78;11.34
78839;BME280;68405;47.190;27.558;2023-09-19T08:15:45;99914.27;;;41.68;11.50
78839;BME280;68405;47.190;27.558;2023-09-19T08:18:14;99910.81;;;41.70;11.29
78839;BME280;68405;47.190;27.558;2023-09-19T08:20:43;99908.08;;;41.85;11.11
78839;BME280;68405;47.190;27.558;2023-09-19T08:23:18;99899.99;;;42.02;10.97
78839;BME280;68405;47.190;27.558;2023-09-19T08:25:49;99894.05;;;42.77;10.54
78839;BME280;68405;47.190;27.558;2023-09-19T08:28:18;99895.60;;;42.30;10.65
78839;BME280;68405;47.190;27.558;2023-09-19T08:30:52;99892.12;;;42.06;11.08
78839;BME280;68405;47.190;27.558;2023-09-19T08:33:23;99885.24;;;42.45;10.46
78839;BME280;68405;47.190;27.558;2023-09-19T08:35:52;99880.95;;;41.67;10.88
78839;BME280;68405;47.190;27.558;2023-09-19T08:38:21;99877.04;;;42.04;10.70
78839;BME280;68405;47.190;27.558;2023-09-19T08:40:50;99871.98;;;41.49;10.68
78839;BME280;68405;47.190;27.558;2023-09-19T08:43:22;99867.73;;;41.79;10.64
78839;BME280;68405;47.190;27.558;2023-09-19T08:45:51;99871.90;;;41.87;10.59
78839;BME280;68405;47.190;27.558;2023-09-19T08:48:25;99884.42;;;41.17;11.13
78839;BME280;68405;47.190;27.558;2023-09-19T08:51:02;99870.30;;;40.36;11.33
78839;BME280;68405;47.190;27.558;2023-09-19T08:53:40;99876.23;;;39.52;11.99
78839;BME280;68405;47.190;27.558;2023-09-19T08:56:11;99856.37;;;39.35;12.24
78839;BME280;68405;47.190;27.558;2023-09-19T08:58:49;99847.70;;;40.12;11.70
78839;BME280;68405;47.190;27.558;2023-09-19T09:01:22;99855.64;;;39.51;11.92
78839;BME280;68405;47.190;27.558;2023-09-19T09:03:53;99846.48;;;37.51;13.29
78839;BME280;68405;47.190;27.558;2023-09-19T09:06:24;99847.11;;;36.96;13.85
78839;BME280;68405;47.190;27.558;2023-09-19T09:08:54;99842.91;;;35.45;14.78
78839;BME280;68405;47.190;27.558;2023-09-19T09:11:23;99840.28;;;35.50;14.69
78839;BME280;68405;47.190;27.558;2023-09-19T09:13:53;99847.63;;;36.42;13.91
78839;BME280;68405;47.190;27.558;2023-09-19T09:16:22;99852.86;;;36.69;13.84
78839;BME280;68405;47.190;27.558;2023-09-19T09:18:53;99841.44;;;35.34;14.71
78839;BME280;68405;47.190;27.558;2023-09-19T09:21:22;99847.09;;;34.24;15.98
78839;BME280;68405;47.190;27.558;2023-09-19T09:23:53;99842.30;;;33.77;16.24
78839;BME280;68405;47.190;27.558;2023-09-19T09:26:41;99840.74;;;33.70;16.78
78839;BME280;68405;47.190;27.558;2023-09-19T09:29:11;99847.94;;;33.53;17.14
78839;BME280;68405;47.190;27.558;2023-09-19T09:31:41;99840.81;;;33.02;17.83
78839;BME280;68405;47.190;27.558;2023-09-19T09:34:11;99838.63;;;34.03;17.20
78839;BME280;68405;47.190;27.558;2023-09-19T09:36:41;99839.16;;;33.81;17.58
78839;BME280;68405;47.190;27.558;2023-09-19T09:39:10;99833.75;;;33.45;18.04
78839;BME280;68405;47.190;27.558;2023-09-19T09:41:47;99846.71;;;32.63;18.69
78839;BME280;68405;47.190;27.558;2023-09-19T09:44:17;99833.64;;;32.29;19.15
78839;BME280;68405;47.190;27.558;2023-09-19T09:46:47;99828.20;;;32.05;19.45
78839;BME280;68405;47.190;27.558;2023-09-19T09:49:48;99820.14;;;31.84;20.00
78839;BME280;68405;47.190;27.558;2023-09-19T09:52:45;99822.91;;;32.11;19.90
78839;BME280;68405;47.190;27.558;2023-09-19T09:55:15;99814.00;;;32.39;19.66
78839;BME280;68405;47.190;27.558;2023-09-19T09:57:44;99824.30;;;32.29;19.70
78839;BME280;68405;47.190;27.558;2023-09-19T10:00:14;99825.09;;;31.37;21.07
78839;BME280;68405;47.190;27.558;2023-09-19T10:02:48;99826.51;;;31.18;21.52
78839;BME280;68405;47.190;27.558;2023-09-19T10:05:18;99829.02;;;30.89;21.99
78839;BME280;68405;47.190;27.558;2023-09-19T10:07:52;99834.92;;;31.09;21.31
78839;BME280;68405;47.190;27.558;2023-09-19T10:10:35;99825.74;;;31.07;21.05
78839;BME280;68405;47.190;27.558;2023-09-19T10:13:23;99820.64;;;30.94;21.18
78839;BME280;68405;47.190;27.558;2023-09-19T10:15:57;99816.41;;;30.85;21.48
78839;BME280;68405;47.190;27.558;2023-09-19T10:18:28;99817.27;;;30.50;22.16
78839;BME280;68405;47.190;27.558;2023-09-19T10:20:58;99815.60;;;31.28;21.59
78839;BME280;68405;47.190;27.558;2023-09-19T10:23:29;99826.02;;;32.63;20.38
78839;BME280;68405;47.190;27.558;2023-09-19T10:26:02;99819.79;;;32.57;20.03
78839;BME280;68405;47.190;27.558;2023-09-19T10:28:33;99820.05;;;32.72;19.98
78839;BME280;68405;47.190;27.558;2023-09-19T10:31:04;99826.70;;;32.46;20.05
78839;BME280;68405;47.190;27.558;2023-09-19T10:33:38;99820.65;;;31.99;19.79
78839;BME280;68405;47.190;27.558;2023-09-19T10:36:11;99820.77;;;31.74;20.07
78839;BME280;68405;47.190;27.558;2023-09-19T10:38:44;99809.39;;;32.86;19.52
78839;BME280;68405;47.190;27.558;2023-09-19T10:41:15;99812.13;;;33.33;19.19
78839;BME280;68405;47.190;27.558;2023-09-19T10:43:46;99811.21;;;34.64;18.52
78839;BME280;68405;47.190;27.558;2023-09-19T10:46:16;99817.26;;;35.52;18.10
78839;BME280;68405;47.190;27.558;2023-09-19T10:48:46;99811.00;;;35.13;18.44
78839;BME280;68405;47.190;27.558;2023-09-19T10:51:19;99801.85;;;34.87;18.70
78839;BME280;68405;47.190;27.558;2023-09-19T10:53:54;99799.28;;;34.35;19.23
78839;BME280;68405;47.190;27.558;2023-09-19T10:56:27;99804.69;;;33.90;19.73
78839;BME280;68405;47.190;27.558;2023-09-19T10:59:10;99794.71;;;33.54;20.11
78839;BME280;68405;47.190;27.558;2023-09-19T11:01:45;99796.27;;;32.94;20.62
78839;BME280;68405;47.190;27.558;2023-09-19T11:04:38;99790.27;;;32.64;21.06
78839;BME280;68405;47.190;27.558;2023-09-19T11:07:08;99791.65;;;33.12;20.80
78839;BME280;68405;47.190;27.558;2023-09-19T11:09:46;99791.23;;;32.73;21.11
78839;BME280;68405;47.190;27.558;2023-09-19T11:12:49;99779.14;;;31.65;22.33
78839;BME280;68405;47.190;27.558;2023-09-19T11:18:53;99775.64;;;30.31;24.11
78839;BME280;68405;47.190;27.558;2023-09-19T11:21:52;99769.65;;;30.15;24.16
78839;BME280;68405;47.190;27.558;2023-09-19T11:24:32;99769.18;;;29.55;24.44
78839;BME280;68405;47.190;27.558;2023-09-19T11:27:16;99766.06;;;29.65;23.43
78839;BME280;68405;47.190;27.558;2023-09-19T11:29:46;99765.70;;;29.37;22.58
78839;BME280;68405;47.190;27.558;2023-09-19T11:39:00;99783.87;;;29.17;22.87
78839;BME280;68405;47.190;27.558;2023-09-19T11:41:43;99775.63;;;29.81;22.37
78839;BME280;68405;47.190;27.558;2023-09-19T11:44:32;99775.98;;;30.16;21.75
78839;BME280;68405;47.190;27.558;2023-09-19T11:47:03;99767.84;;;30.22;21.71
78839;BME280;68405;47.190;27.558;2023-09-19T11:49:33;99775.73;;;29.97;22.00
78839;BME280;68405;47.190;27.558;2023-09-19T11:52:08;99774.44;;;29.79;22.26
78839;BME280;68405;47.190;27.558;2023-09-19T11:54:39;99776.63;;;29.48;22.88
78839;BME280;68405;47.190;27.558;2023-09-19T11:57:21;99772.86;;;29.51;23.10
78839;BME280;68405;47.190;27.558;2023-09-19T11:59:51;99778.98;;;29.69;22.78
78839;BME280;68405;47.190;27.558;2023-09-19T12:02:38;99764.58;;;29.85;22.56
78839;BME280;68405;47.190;27.558;2023-09-19T12:05:09;99766.92;;;29.91;22.79
78839;BME280;68405;47.190;27.558;2023-09-19T12:07:45;99768.43;;;29.74;22.88
78839;BME280;68405;47.190;27.558;2023-09-19T12:10:17;99765.59;;;29.25;23.41
78839;BME280;68405;47.190;27.558;2023-09-19T12:12:50;99765.95;;;29.02;23.42
78839;BME280;68405;47.190;27.558;2023-09-19T12:15:25;99760.08;;;28.57;23.91
78839;BME280;68405;47.190;27.558;2023-09-19T12:17:56;99758.12;;;28.05;23.96
78839;BME280;68405;47.190;27.558;2023-09-19T12:20:25;99762.64;;;27.92;24.18
78839;BME280;68405;47.190;27.558;2023-09-19T12:23:15;99755.68;;;27.83;24.23
78839;BME280;68405;47.190;27.558;2023-09-19T12:25:45;99759.50;;;27.93;24.38
78839;BME280;68405;47.190;27.558;2023-09-19T12:28:16;99768.70;;;27.90;24.94
78839;BME280;68405;47.190;27.558;2023-09-19T12:30:45;99761.84;;;27.92;25.09
78839;BME280;68405;47.190;27.558;2023-09-19T12:33:18;99767.98;;;27.90;24.92
78839;BME280;68405;47.190;27.558;2023-09-19T12:35:49;99773.41;;;27.88;24.95
78839;BME280;68405;47.190;27.558;2023-09-19T12:38:27;99765.52;;;27.78;24.93
78839;BME280;68405;47.190;27.558;2023-09-19T12:40:57;99770.35;;;27.77;25.21
78839;BME280;68405;47.190;27.558;2023-09-19T12:43:29;99770.02;;;27.71;25.21
78839;BME280;68405;47.190;27.558;2023-09-19T12:46:01;99768.58;;;27.55;25.17
78839;BME280;68405;47.190;27.558;2023-09-19T12:48:30;99772.55;;;27.45;25.57
78839;BME280;68405;47.190;27.558;2023-09-19T12:51:07;99770.41;;;27.27;26.31
78839;BME280;68405;47.190;27.558;2023-09-19T12:53:39;99771.52;;;27.24;26.34
78839;BME280;68405;47.190;27.558;2023-09-19T12:56:11;99773.51;;;27.22;26.57
78839;BME280;68405;47.190;27.558;2023-09-19T12:58:52;99782.48;;;27.16;26.53
78839;BME280;68405;47.190;27.558;2023-09-19T13:01:23;99782.77;;;26.83;27.40
78839;BME280;68405;47.190;27.558;2023-09-19T13:04:19;99781.64;;;26.68;27.52
78839;BME280;68405;47.190;27.558;2023-09-19T13:06:49;99785.89;;;26.38;28.37
78839;BME280;68405;47.190;27.558;2023-09-19T13:09:19;99785.55;;;26.21;28.41
78839;BME280;68405;47.190;27.558;2023-09-19T13:11:49;99784.88;;;26.03;28.90
78839;BME280;68405;47.190;27.558;2023-09-19T13:14:19;99787.16;;;25.92;28.96
78839;BME280;68405;47.190;27.558;2023-09-19T13:16:57;99784.81;;;25.91;28.89
78839;BME280;68405;47.190;27.558;2023-09-19T13:19:40;99783.38;;;25.93;28.37
78839;BME280;68405;47.190;27.558;2023-09-19T13:22:38;99789.70;;;25.77;28.46
78839;BME280;68405;47.190;27.558;2023-09-19T13:25:09;99787.81;;;25.61;28.83
78839;BME280;68405;47.190;27.558;2023-09-19T13:27:41;99790.98;;;25.45;29.19
78839;BME280;68405;47.190;27.558;2023-09-19T13:30:13;99790.70;;;25.24;29.68
78839;BME280;68405;47.190;27.558;2023-09-19T13:32:42;99790.05;;;25.16;29.79
78839;BME280;68405;47.190;27.558;2023-09-19T13:35:11;99784.54;;;24.93;30.70
78839;BME280;68405;47.190;27.558;2023-09-19T13:37:42;99784.00;;;24.95;30.68
78839;BME280;68405;47.190;27.558;2023-09-19T13:40:12;99782.96;;;24.91;30.67
78839;BME280;68405;47.190;27.558;2023-09-19T13:42:42;99785.98;;;24.93;30.62
78839;BME280;68405;47.190;27.558;2023-09-19T13:45:11;99781.21;;;24.93;31.05
78839;BME280;68405;47.190;27.558;2023-09-19T13:47:43;99778.77;;;24.94;31.22
78839;BME280;68405;47.190;27.558;2023-09-19T13:50:12;99783.77;;;25.02;31.02
78839;BME280;68405;47.190;27.558;2023-09-19T13:52:42;99787.16;;;25.10;30.81
78839;BME280;68405;47.190;27.558;2023-09-19T13:55:11;99788.33;;;25.10;30.78
78839;BME280;68405;47.190;27.558;2023-09-19T13:57:48;99792.29;;;25.11;30.56
78839;BME280;68405;47.190;27.558;2023-09-19T14:00:20;99788.33;;;25.09;30.02
78839;BME280;68405;47.190;27.558;2023-09-19T14:02:50;99793.50;;;25.07;29.49
78839;BME280;68405;47.190;27.558;2023-09-19T14:05:19;99790.61;;;25.06;29.37
78839;BME280;68405;47.190;27.558;2023-09-19T14:07:49;99796.34;;;25.04;29.15
78839;BME280;68405;47.190;27.558;2023-09-19T14:10:18;99793.56;;;25.01;29.09
78839;BME280;68405;47.190;27.558;2023-09-19T14:12:47;99791.53;;;25.04;29.11
78839;BME280;68405;47.190;27.558;2023-09-19T14:15:16;99794.67;;;24.97;29.02
78839;BME280;68405;47.190;27.558;2023-09-19T14:17:45;99797.08;;;24.92;28.91